createdAt,value
2018-08-30T00:01:34.833Z,24.20
2018-08-30T00:04:04.488Z,24.23
2018-08-30T00:06:33.359Z,26.10
2018-08-30T00:09:01.872Z,26.63
2018-08-30T00:11:32.842Z,25.80
2018-08-30T00:14:02.050Z,24.47
2018-08-30T00:16:30.971Z,25.87
2018-08-30T00:18:59.567Z,25.53
2018-08-30T00:21:28.340Z,24.33
2018-08-30T00:23:57.036Z,22.70
2018-08-30T00:26:25.827Z,21.93
2018-08-30T00:28:55.251Z,21.30
2018-08-30T00:31:24.200Z,21.83
2018-08-30T00:33:53.858Z,21.77
2018-08-30T00:36:22.443Z,21.80
2018-08-30T00:38:51.105Z,20.63
2018-08-30T00:41:19.862Z,23.10
2018-08-30T00:43:48.398Z,20.87
2018-08-30T00:46:17.202Z,21.03
2018-08-30T00:48:45.899Z,21.17
2018-08-30T00:51:16.923Z,18.17
2018-08-30T00:53:45.569Z,20.63
2018-08-30T00:56:14.283Z,20.73
2018-08-30T00:58:42.979Z,18.90
2018-08-30T01:01:12.174Z,20.07
2018-08-30T01:03:40.986Z,21.43
2018-08-30T01:06:09.656Z,21.00
2018-08-30T01:08:39.259Z,22.40
2018-08-30T01:11:08.078Z,22.37
2018-08-30T01:13:36.961Z,19.73
2018-08-30T01:16:05.688Z,20.77
2018-08-30T01:18:34.700Z,18.80
2018-08-30T01:21:03.552Z,18.30
2018-08-30T01:23:32.854Z,18.40
2018-08-30T01:26:01.433Z,19.80
2018-08-30T01:28:31.179Z,19.43
2018-08-30T01:30:59.966Z,20.00
2018-08-30T01:33:28.466Z,19.13
2018-08-30T01:35:57.529Z,19.17
2018-08-30T01:38:26.102Z,20.13
2018-08-30T01:40:55.406Z,18.97
2018-08-30T01:43:24.106Z,18.80
2018-08-30T01:45:52.796Z,18.80
2018-08-30T01:48:22.222Z,16.60
2018-08-30T01:50:51.188Z,17.20
2018-08-30T01:53:20.575Z,17.50
2018-08-30T01:55:49.232Z,16.67
2018-08-30T01:58:18.021Z,15.57
2018-08-30T02:00:47.363Z,15.43
2018-08-30T02:03:15.980Z,16.40
2018-08-30T02:05:44.926Z,15.40
2018-08-30T02:08:13.719Z,14.33
2018-08-30T02:10:42.325Z,14.40
2018-08-30T02:13:11.471Z,14.80
2018-08-30T02:15:40.130Z,14.97
2018-08-30T02:18:09.748Z,16.33
2018-08-30T02:20:39.654Z,16.93
2018-08-30T02:23:08.197Z,19.67
2018-08-30T02:25:36.819Z,16.47
2018-08-30T02:28:06.116Z,14.83
2018-08-30T02:30:34.915Z,15.90
2018-08-30T02:33:03.604Z,15.73
2018-08-30T02:35:32.190Z,18.40
2018-08-30T02:38:00.724Z,15.80
2018-08-30T02:40:30.125Z,15.43
2018-08-30T02:42:58.799Z,15.73
2018-08-30T02:45:28.294Z,12.20
2018-08-30T02:47:57.575Z,14.87
2018-08-30T02:50:26.989Z,11.10
2018-08-30T02:52:55.576Z,12.80
2018-08-30T02:55:24.197Z,12.17
2018-08-30T02:57:53.919Z,13.77
2018-08-30T03:00:23.900Z,13.77
2018-08-30T03:02:53.672Z,18.90
2018-08-30T03:05:22.174Z,12.73
2018-08-30T03:07:50.655Z,14.13
2018-08-30T03:10:19.897Z,14.30
2018-08-30T03:12:49.364Z,18.10
2018-08-30T03:15:17.855Z,13.83
2018-08-30T03:17:46.781Z,17.80
2018-08-30T03:20:15.861Z,15.67
2018-08-30T03:22:45.005Z,17.00
2018-08-30T03:25:13.614Z,14.07
2018-08-30T03:27:42.304Z,18.50
2018-08-30T03:30:10.984Z,15.10
2018-08-30T03:32:43.725Z,16.60
2018-08-30T03:35:13.086Z,13.47
2018-08-30T03:37:42.460Z,16.23
2018-08-30T03:40:10.939Z,13.90
2018-08-30T03:42:39.404Z,14.13
2018-08-30T03:45:08.049Z,15.10
2018-08-30T03:47:36.393Z,13.03
2018-08-30T03:50:06.002Z,14.80
2018-08-30T03:52:34.565Z,15.50
2018-08-30T03:55:03.865Z,15.50
2018-08-30T03:57:32.544Z,12.07
2018-08-30T04:00:01.233Z,14.47
2018-08-30T04:02:30.004Z,12.07
2018-08-30T04:04:58.634Z,18.30
2018-08-30T04:07:28.430Z,12.10
2018-08-30T04:09:57.199Z,17.20
2018-08-30T04:12:25.983Z,12.20
2018-08-30T04:14:54.491Z,10.60
2018-08-30T04:17:22.902Z,13.03
2018-08-30T04:19:52.860Z,11.50
2018-08-30T04:22:21.550Z,9.30
2018-08-30T04:24:52.818Z,10.90
2018-08-30T04:27:23.483Z,9.67
2018-08-30T04:29:55.158Z,9.07
2018-08-30T04:32:26.425Z,13.13
2018-08-30T04:34:56.443Z,8.37
2018-08-30T04:37:28.161Z,11.40
2018-08-30T04:40:02.887Z,10.80
2018-08-30T04:42:33.527Z,11.37
2018-08-30T04:45:03.041Z,13.20
2018-08-30T04:47:35.072Z,8.37
2018-08-30T04:50:05.091Z,10.20
2018-08-30T04:52:34.727Z,12.90
2018-08-30T04:55:03.474Z,10.67
2018-08-30T04:57:32.201Z,14.83
2018-08-30T05:00:00.766Z,12.83
2018-08-30T05:02:29.376Z,9.07
2018-08-30T05:05:01.531Z,13.63
2018-08-30T05:07:33.993Z,10.57
2018-08-30T05:10:03.943Z,10.80
2018-08-30T05:12:33.062Z,10.40
2018-08-30T05:15:01.700Z,5.67
2018-08-30T05:17:31.436Z,16.03
2018-08-30T05:19:59.989Z,6.97
2018-08-30T05:22:28.477Z,9.00
2018-08-30T05:24:57.019Z,8.37
2018-08-30T05:27:25.721Z,9.50
2018-08-30T05:29:56.793Z,8.00
2018-08-30T05:32:24.802Z,7.67
2018-08-30T05:34:53.249Z,6.73
2018-08-30T05:37:22.200Z,6.77
2018-08-30T05:39:50.656Z,10.20
2018-08-30T05:42:19.295Z,12.23
2018-08-30T05:44:47.962Z,9.50
2018-08-30T05:47:16.497Z,7.07
2018-08-30T05:49:45.075Z,5.17
2018-08-30T05:52:13.797Z,11.77
2018-08-30T05:54:44.064Z,8.80
2018-08-30T05:57:12.857Z,5.60
2018-08-30T05:59:41.510Z,8.20
2018-08-30T06:02:09.772Z,8.23
2018-08-30T06:04:38.398Z,11.80
2018-08-30T06:07:07.102Z,9.00
2018-08-30T06:09:35.599Z,10.37
2018-08-30T06:12:04.086Z,7.10
2018-08-30T06:14:32.790Z,5.50
2018-08-30T06:17:01.405Z,6.77
2018-08-30T06:19:30.095Z,8.33
2018-08-30T06:21:58.692Z,5.33
2018-08-30T06:24:28.474Z,8.50
2018-08-30T06:26:57.721Z,8.20
2018-08-30T06:29:26.705Z,14.73
2018-08-30T06:31:54.846Z,5.27
2018-08-30T06:34:23.359Z,10.90
2018-08-30T06:36:51.937Z,6.50
2018-08-30T06:39:21.174Z,4.47
2018-08-30T06:41:49.650Z,10.77
2018-08-30T06:44:19.238Z,7.00
2018-08-30T06:46:48.498Z,7.77
2018-08-30T06:49:17.357Z,7.30
2018-08-30T06:51:46.377Z,6.77
2018-08-30T06:54:15.748Z,4.87
2018-08-30T06:56:44.379Z,9.30
2018-08-30T06:59:14.969Z,7.07
2018-08-30T07:01:45.975Z,8.17
2018-08-30T07:04:15.243Z,9.03
2018-08-30T07:06:44.531Z,5.17
2018-08-30T07:09:13.095Z,8.50
2018-08-30T07:11:43.763Z,9.43
2018-08-30T07:14:12.425Z,7.23
2018-08-30T07:16:42.836Z,9.67
2018-08-30T07:19:12.009Z,5.70
2018-08-30T07:21:40.964Z,8.33
2018-08-30T07:24:11.130Z,6.97
2018-08-30T07:26:40.740Z,10.00
2018-08-30T07:29:10.486Z,7.17
2018-08-30T07:31:40.008Z,5.67
2018-08-30T07:34:08.703Z,5.50
2018-08-30T07:36:38.642Z,8.30
2018-08-30T07:39:10.368Z,4.80
2018-08-30T07:41:40.127Z,7.80
2018-08-30T07:44:09.608Z,6.77
2018-08-30T07:46:38.390Z,11.93
2018-08-30T07:49:08.090Z,4.17
2018-08-30T07:51:36.684Z,10.70
2018-08-30T07:54:05.852Z,5.13
2018-08-30T07:56:34.512Z,5.93
2018-08-30T07:59:03.203Z,4.90
2018-08-30T08:01:31.997Z,7.03
2018-08-30T08:04:00.502Z,5.33
2018-08-30T08:06:28.748Z,5.77
2018-08-30T08:08:57.542Z,4.20
2018-08-30T08:11:27.146Z,9.30
2018-08-30T08:13:55.935Z,7.90
2018-08-30T08:16:25.125Z,6.60
2018-08-30T08:18:53.773Z,5.10
2018-08-30T08:21:23.213Z,5.40
2018-08-30T08:23:51.804Z,5.37
2018-08-30T08:26:20.375Z,6.37
2018-08-30T08:28:50.649Z,2.57
2018-08-30T08:31:20.665Z,4.67
2018-08-30T08:33:50.367Z,6.63
2018-08-30T08:36:19.652Z,3.63
2018-08-30T08:38:49.058Z,7.03
2018-08-30T08:41:22.382Z,5.23
2018-08-30T08:43:52.077Z,3.83
2018-08-30T08:46:21.465Z,7.87
2018-08-30T08:48:50.831Z,5.50
2018-08-30T08:53:55.998Z,4.67
2018-08-30T08:56:25.040Z,5.00
2018-08-30T08:58:54.654Z,5.23
2018-08-30T09:01:23.235Z,6.50
2018-08-30T09:03:52.542Z,5.10
2018-08-30T09:06:21.068Z,7.63
2018-08-30T09:08:49.560Z,4.63
2018-08-30T09:11:18.067Z,5.93
2018-08-30T09:13:47.651Z,3.70
2018-08-30T09:16:16.247Z,6.13
2018-08-30T09:18:45.011Z,5.10
2018-08-30T09:21:13.722Z,4.90
2018-08-30T09:23:42.614Z,4.30
2018-08-30T09:26:11.458Z,4.33
2018-08-30T09:28:40.002Z,5.77
2018-08-30T09:31:08.777Z,4.20
2018-08-30T09:33:37.607Z,4.47
2018-08-30T09:36:06.611Z,3.30
2018-08-30T09:38:36.167Z,4.23
2018-08-30T09:41:05.601Z,3.60
2018-08-30T09:43:35.348Z,5.13
2018-08-30T09:46:04.676Z,3.53
2018-08-30T09:48:33.506Z,2.93
2018-08-30T09:51:03.699Z,3.30
2018-08-30T09:53:32.546Z,4.37
2018-08-30T09:56:03.049Z,3.40
2018-08-30T09:58:32.719Z,5.50
2018-08-30T10:01:07.028Z,2.93
2018-08-30T10:03:35.755Z,5.40
2018-08-30T10:06:05.533Z,4.27
2018-08-30T10:08:34.455Z,3.73
2018-08-30T10:11:03.771Z,3.17
2018-08-30T10:13:32.446Z,4.93
2018-08-30T10:16:01.250Z,5.97
2018-08-30T10:18:30.483Z,4.53
2018-08-30T10:20:59.532Z,3.53
2018-08-30T10:23:28.385Z,6.07
2018-08-30T10:25:57.311Z,2.53
2018-08-30T10:28:26.419Z,3.70
2018-08-30T10:30:55.235Z,2.53
2018-08-30T10:33:23.925Z,6.00
2018-08-30T10:35:52.917Z,4.30
2018-08-30T10:38:22.414Z,3.70
2018-08-30T10:40:51.687Z,4.70
2018-08-30T10:43:22.647Z,3.50
2018-08-30T10:45:52.281Z,4.23
2018-08-30T10:48:23.942Z,4.60
2018-08-30T10:50:52.286Z,6.63
2018-08-30T10:53:20.818Z,6.30
2018-08-30T10:55:51.541Z,3.83
2018-08-30T10:58:20.151Z,3.27
2018-08-30T11:00:49.348Z,2.50
2018-08-30T11:03:18.694Z,3.90
2018-08-30T11:05:48.473Z,5.13
2018-08-30T11:08:17.275Z,4.13
2018-08-30T11:10:45.743Z,3.70
2018-08-30T11:13:15.248Z,4.77
2018-08-30T11:15:43.647Z,4.17
2018-08-30T11:18:12.363Z,3.10
2018-08-30T11:20:40.927Z,2.33
2018-08-30T11:23:09.630Z,4.30
2018-08-30T11:25:38.184Z,6.60
2018-08-30T11:28:07.590Z,3.00
2018-08-30T11:30:38.774Z,6.20
2018-08-30T11:33:08.447Z,5.43
2018-08-30T11:35:38.488Z,3.70
2018-08-30T11:38:08.162Z,4.93
2018-08-30T11:40:37.632Z,5.27
2018-08-30T11:43:06.455Z,3.17
2018-08-30T11:45:35.623Z,5.87
2018-08-30T11:48:04.315Z,5.50
2018-08-30T11:50:36.062Z,4.80
2018-08-30T11:53:04.982Z,4.03
2018-08-30T11:55:34.559Z,5.27
2018-08-30T11:58:04.439Z,2.47
2018-08-30T12:00:33.716Z,3.33
2018-08-30T12:03:02.714Z,4.00
2018-08-30T12:05:32.077Z,5.23
2018-08-30T12:08:00.780Z,3.83
2018-08-30T12:10:29.906Z,7.70
2018-08-30T12:12:59.352Z,3.17
2018-08-30T12:15:28.078Z,4.70
2018-08-30T12:17:57.508Z,4.30
2018-08-30T12:20:26.843Z,4.60
2018-08-30T12:22:56.826Z,4.30
2018-08-30T12:25:26.375Z,4.20
2018-08-30T12:27:55.071Z,5.43
2018-08-30T12:30:23.817Z,4.20
2018-08-30T12:32:52.509Z,4.30
2018-08-30T12:35:21.944Z,5.13
2018-08-30T12:37:51.048Z,5.10
2018-08-30T12:40:19.841Z,4.73
2018-08-30T12:42:49.554Z,4.17
2018-08-30T12:45:19.344Z,3.40
2018-08-30T12:47:49.566Z,4.37
2018-08-30T12:50:18.431Z,2.90
2018-08-30T12:52:46.860Z,3.00
2018-08-30T12:55:16.681Z,2.87
2018-08-30T12:57:49.161Z,4.37
2018-08-30T13:00:18.145Z,4.43
2018-08-30T13:02:47.685Z,2.57
2018-08-30T13:07:50.682Z,3.27
2018-08-30T13:10:21.237Z,4.83
2018-08-30T13:12:49.894Z,5.53
2018-08-30T13:15:19.693Z,4.70
2018-08-30T13:17:49.677Z,4.70
2018-08-30T13:20:19.201Z,3.83
2018-08-30T13:22:48.591Z,2.80
2018-08-30T13:25:17.530Z,5.43
2018-08-30T13:27:46.144Z,5.47
2018-08-30T13:30:15.262Z,5.20
2018-08-30T13:32:44.252Z,3.80
2018-08-30T13:35:14.910Z,4.23
2018-08-30T13:37:44.488Z,4.40
2018-08-30T13:40:13.552Z,5.80
2018-08-30T13:42:42.817Z,2.93
2018-08-30T13:45:11.268Z,6.63
2018-08-30T13:47:40.130Z,3.67
2018-08-30T13:50:09.026Z,3.73
2018-08-30T13:52:37.489Z,2.57
2018-08-30T13:55:06.114Z,5.30
2018-08-30T13:57:35.565Z,3.60
2018-08-30T14:00:04.339Z,2.90
2018-08-30T14:02:33.873Z,5.30
2018-08-30T14:05:02.667Z,5.90
2018-08-30T14:07:33.701Z,2.77
2018-08-30T14:12:38.608Z,3.13
2018-08-30T14:15:08.516Z,3.10
2018-08-30T14:17:36.630Z,3.30
2018-08-30T14:20:06.493Z,4.00
2018-08-30T14:22:35.408Z,4.17
2018-08-30T14:25:04.461Z,3.47
2018-08-30T14:27:34.290Z,3.73
2018-08-30T14:30:02.931Z,3.43
2018-08-30T14:32:35.659Z,3.57
2018-08-30T14:37:42.533Z,4.17
2018-08-30T14:40:11.100Z,2.47
2018-08-30T14:42:40.102Z,2.30
2018-08-30T14:45:09.766Z,2.90
2018-08-30T14:47:40.295Z,3.10
2018-08-30T14:50:08.679Z,4.37
2018-08-30T14:52:37.348Z,4.83
2018-08-30T14:55:06.710Z,2.50
2018-08-30T14:57:35.931Z,2.53
2018-08-30T15:00:05.232Z,2.43
2018-08-30T15:02:33.641Z,2.87
2018-08-30T15:05:02.576Z,4.27
2018-08-30T15:07:31.442Z,4.13
2018-08-30T15:10:00.041Z,2.20
2018-08-30T15:12:28.570Z,2.30
2018-08-30T15:14:57.331Z,3.23
2018-08-30T15:17:27.763Z,2.50
2018-08-30T15:19:56.461Z,4.03
2018-08-30T15:22:25.685Z,4.33
2018-08-30T15:24:54.562Z,3.10
2018-08-30T15:27:24.527Z,3.00
2018-08-30T15:29:53.280Z,3.13
2018-08-30T15:32:23.977Z,3.73
2018-08-30T15:34:52.535Z,4.60
2018-08-30T15:37:21.180Z,2.30
2018-08-30T15:39:49.820Z,4.20
2018-08-30T15:42:18.714Z,2.43
2018-08-30T15:44:47.920Z,5.63
2018-08-30T15:47:16.770Z,3.40
2018-08-30T15:49:45.354Z,2.43
2018-08-30T15:54:50.506Z,5.33
2018-08-30T15:57:19.372Z,3.70
2018-08-30T15:59:48.453Z,4.27
2018-08-30T16:02:18.137Z,4.70
2018-08-30T16:04:46.666Z,3.57
2018-08-30T16:07:15.560Z,3.80
2018-08-30T16:09:44.170Z,5.77
2018-08-30T16:12:12.993Z,4.83
2018-08-30T16:14:42.204Z,4.20
2018-08-30T16:17:12.228Z,3.23
2018-08-30T16:19:41.722Z,6.43
2018-08-30T16:22:11.045Z,4.27
2018-08-30T16:24:40.442Z,3.80
2018-08-30T16:27:10.824Z,4.00
2018-08-30T16:29:40.110Z,4.00
2018-08-30T16:32:08.696Z,3.83
2018-08-30T16:34:37.332Z,3.20
2018-08-30T16:37:07.309Z,3.37
2018-08-30T16:39:35.795Z,3.13
2018-08-30T16:42:04.382Z,2.60
2018-08-30T16:44:32.908Z,9.80
2018-08-30T16:47:02.364Z,4.90
2018-08-30T16:49:31.874Z,4.60
2018-08-30T16:52:00.394Z,6.33
2018-08-30T16:54:29.661Z,4.70
2018-08-30T16:57:02.026Z,2.60
2018-08-30T16:59:30.756Z,3.60
2018-08-30T17:01:59.962Z,3.50
2018-08-30T17:04:30.550Z,3.53
2018-08-30T17:06:59.719Z,2.93
2018-08-30T17:09:28.908Z,4.50
2018-08-30T17:11:58.694Z,2.87
2018-08-30T17:14:28.264Z,5.47
2018-08-30T17:16:56.847Z,2.63
2018-08-30T17:19:30.388Z,3.50
2018-08-30T17:21:58.818Z,5.47
2018-08-30T17:24:27.550Z,5.43
2018-08-30T17:26:56.253Z,6.40
2018-08-30T17:29:24.983Z,3.50
2018-08-30T17:31:56.800Z,3.50
2018-08-30T17:34:25.312Z,4.73
2018-08-30T17:36:58.502Z,4.83
2018-08-30T17:39:27.269Z,4.87
2018-08-30T17:41:55.989Z,5.03
2018-08-30T17:44:24.565Z,5.13
2018-08-30T17:46:54.221Z,5.70
2018-08-30T17:49:22.854Z,6.77
2018-08-30T17:51:51.672Z,2.73
2018-08-30T17:54:20.950Z,3.90
2018-08-30T17:56:49.738Z,3.60
2018-08-30T17:59:18.303Z,6.43
2018-08-30T18:01:47.047Z,4.33
2018-08-30T18:04:17.159Z,7.20
2018-08-30T18:06:46.011Z,3.93
2018-08-30T18:09:14.903Z,3.97
2018-08-30T18:11:43.907Z,6.60
2018-08-30T18:14:12.551Z,4.57
2018-08-30T18:16:41.184Z,5.50
2018-08-30T18:19:09.978Z,5.83
2018-08-30T18:21:46.440Z,5.60
2018-08-30T18:24:15.183Z,4.80
2018-08-30T18:26:44.554Z,5.97
2018-08-30T18:29:14.052Z,9.43
2018-08-30T18:31:43.563Z,14.63
2018-08-30T18:34:12.079Z,11.77
2018-08-30T18:36:40.960Z,17.27
2018-08-30T18:39:10.736Z,17.07
2018-08-30T18:41:41.091Z,18.00
2018-08-30T18:44:09.755Z,12.23
2018-08-30T18:46:38.479Z,12.53
2018-08-30T18:49:07.207Z,9.03
2018-08-30T18:51:35.939Z,6.33
2018-08-30T18:54:07.983Z,9.40
2018-08-30T18:56:37.881Z,5.87
2018-08-30T18:59:07.327Z,8.93
2018-08-30T19:01:36.117Z,10.03
2018-08-30T19:04:04.797Z,13.87
2018-08-30T19:06:34.143Z,10.90
2018-08-30T19:09:04.058Z,12.10
2018-08-30T19:11:33.066Z,14.77
2018-08-30T19:14:02.470Z,12.00
2018-08-30T19:16:37.503Z,11.77
2018-08-30T19:19:13.297Z,11.03
2018-08-30T19:21:42.771Z,7.23
2018-08-30T19:24:17.325Z,6.63
2018-08-30T19:26:46.151Z,5.40
2018-08-30T19:29:17.739Z,5.27
2018-08-30T19:31:46.770Z,3.23
2018-08-30T19:34:16.137Z,5.20
2018-08-30T19:36:44.979Z,4.10
2018-08-30T19:39:14.156Z,3.23
2018-08-30T19:41:42.936Z,4.20
2018-08-30T19:44:11.735Z,2.90
2018-08-30T19:46:40.993Z,5.20
2018-08-30T19:49:09.752Z,6.97
2018-08-30T19:51:38.401Z,5.73
2018-08-30T19:54:06.796Z,6.00
2018-08-30T19:56:36.134Z,3.50
2018-08-30T19:59:04.750Z,6.40
2018-08-30T20:01:33.653Z,6.20
2018-08-30T20:04:04.423Z,3.73
2018-08-30T20:06:33.995Z,5.10
2018-08-30T20:09:03.159Z,5.33
2018-08-30T20:11:31.688Z,5.30
2018-08-30T20:14:00.578Z,5.23
2018-08-30T20:16:33.564Z,10.40
2018-08-30T20:19:02.234Z,5.90
2018-08-30T20:21:31.672Z,6.97
2018-08-30T20:24:00.329Z,7.30
2018-08-30T20:26:29.083Z,3.40
2018-08-30T20:28:57.817Z,8.13
2018-08-30T20:31:27.324Z,5.50
2018-08-30T20:33:56.750Z,5.83
2018-08-30T20:36:26.986Z,6.37
2018-08-30T20:38:55.672Z,6.90
2018-08-30T20:41:24.472Z,4.80
2018-08-30T20:43:56.062Z,5.63
2018-08-30T20:46:24.661Z,7.63
2018-08-30T20:48:53.301Z,6.97
2018-08-30T20:51:25.519Z,8.70
2018-08-30T20:53:54.590Z,7.07
2018-08-30T20:56:23.920Z,4.40
2018-08-30T20:58:53.884Z,4.70
2018-08-30T21:01:22.461Z,4.13
2018-08-30T21:03:50.941Z,6.40
2018-08-30T21:06:20.963Z,10.37
2018-08-30T21:08:49.865Z,6.37
2018-08-30T21:11:20.195Z,5.93
2018-08-30T21:13:49.327Z,6.00
2018-08-30T21:16:21.101Z,4.50
2018-08-30T21:18:49.911Z,4.57
2018-08-30T21:21:19.738Z,3.67
2018-08-30T21:23:50.339Z,6.03
2018-08-30T21:26:19.205Z,11.23
2018-08-30T21:28:54.320Z,4.77
2018-08-30T21:31:23.952Z,4.57
2018-08-30T21:33:54.151Z,4.23
2018-08-30T21:36:24.024Z,6.00
2018-08-30T21:38:52.884Z,5.77
2018-08-30T21:41:21.711Z,3.03
2018-08-30T21:43:52.286Z,3.53
2018-08-30T21:46:21.871Z,6.33
2018-08-30T21:48:50.951Z,6.40
2018-08-30T21:51:19.633Z,4.93
2018-08-30T21:53:49.329Z,4.70
2018-08-30T21:56:18.060Z,3.43
2018-08-30T21:58:47.390Z,3.63
2018-08-30T22:01:17.316Z,3.57
2018-08-30T22:03:46.095Z,4.97
2018-08-30T22:06:15.503Z,3.73
2018-08-30T22:08:46.788Z,3.43
2018-08-30T22:11:17.148Z,3.57
2018-08-30T22:13:46.814Z,6.17
2018-08-30T22:16:15.672Z,3.80
2018-08-30T22:18:44.386Z,4.60
2018-08-30T22:21:14.886Z,4.37
2018-08-30T22:23:44.403Z,4.77
2018-08-30T22:26:13.671Z,5.13
2018-08-30T22:28:44.306Z,5.90
2018-08-30T22:31:14.265Z,8.43
2018-08-30T22:33:45.550Z,6.90
2018-08-30T22:36:14.958Z,5.70
2018-08-30T22:38:43.735Z,3.83
2018-08-30T22:41:12.333Z,3.33
2018-08-30T22:43:41.145Z,4.50
2018-08-30T22:46:09.875Z,3.70
2018-08-30T22:48:40.051Z,4.97
2018-08-30T22:51:09.506Z,4.43
2018-08-30T22:53:42.694Z,4.57
2018-08-30T22:56:12.592Z,3.50
2018-08-30T22:58:43.019Z,9.00
2018-08-30T23:01:13.240Z,7.57
2018-08-30T23:03:42.392Z,6.30
2018-08-30T23:06:13.682Z,6.07
2018-08-30T23:08:42.820Z,4.40
2018-08-30T23:11:11.614Z,6.00
2018-08-30T23:13:40.242Z,4.67
2018-08-30T23:16:10.202Z,7.50
2018-08-30T23:18:38.932Z,5.63
2018-08-30T23:21:08.633Z,7.87
2018-08-30T23:23:38.331Z,3.90
2018-08-30T23:26:07.803Z,8.03
2018-08-30T23:28:36.906Z,4.83
2018-08-30T23:31:06.717Z,3.13
2018-08-30T23:33:35.325Z,6.73
2018-08-30T23:36:05.316Z,8.20
2018-08-30T23:38:34.091Z,5.67
2018-08-30T23:41:03.751Z,3.87
2018-08-30T23:43:33.229Z,4.50
2018-08-30T23:46:02.874Z,4.00
2018-08-30T23:48:32.193Z,8.30
2018-08-30T23:51:00.830Z,6.23
2018-08-30T23:53:31.148Z,5.90
2018-08-30T23:55:59.984Z,5.70
2018-08-30T23:58:46.045Z,4.40
